Time;durP1;ratioP1;P1;durP2;ratioP2;P2;SDS_P1;SDS_P2;PMS_P1;PMS_P2;Temp;Humidity;BMP_temperature;BMP_pressure;BME280_temperature;BME280_humidity;BME280_pressure;Samples;Min_cycle;Max_cycle;Signal;HPM_P1;HPM_P2
2023/05/28 03:01:38;;;;;;;25.77;23.90;;;9.20;99.90;;;;;;5404835;23;20242;-75
2023/05/28 03:04:04;;;;;;;24.77;22.93;;;9.30;99.90;;;;;;4975517;28;20279;-75
2023/05/28 03:06:30;;;;;;;28.43;26.23;;;9.20;99.90;;;;;;4975239;28;20730;-76
2023/05/28 03:08:56;;;;;;;20.63;19.20;;;9.20;99.90;;;;;;4974936;28;20192;-75
2023/05/28 03:11:22;;;;;;;15.53;14.13;;;9.10;99.90;;;;;;4982920;28;20219;-76
2023/05/28 03:13:48;;;;;;;29.47;27.43;;;9.10;99.90;;;;;;4965788;28;20538;-76
2023/05/28 03:16:13;;;;;;;37.67;35.53;;;9.10;99.90;;;;;;4989843;23;20236;-73
2023/05/28 03:18:39;;;;;;;50.27;46.90;;;9.00;99.90;;;;;;4954716;28;20579;-74
2023/05/28 03:21:05;;;;;;;33.57;31.30;;;9.10;99.90;;;;;;4972843;28;20185;-74
2023/05/28 03:23:31;;;;;;;41.83;39.27;;;9.10;99.90;;;;;;4956710;28;20185;-75
2023/05/28 03:25:56;;;;;;;41.87;39.13;;;9.20;99.90;;;;;;4974606;28;20209;-73
2023/05/28 03:28:23;;;;;;;12.87;11.57;;;9.20;99.90;;;;;;4973111;28;20225;-74
2023/05/28 03:30:48;;;;;;;26.40;24.37;;;9.20;99.90;;;;;;4955552;28;20281;-74
2023/05/28 03:33:14;;;;;;;37.63;35.43;;;9.20;99.90;;;;;;4948517;28;20744;-73
2023/05/28 03:35:40;;;;;;;47.87;44.87;;;9.20;99.90;;;;;;4949412;28;20337;-74
2023/05/28 03:38:05;;;;;;;64.33;60.80;;;9.20;99.90;;;;;;4972366;28;20239;-73
2023/05/28 03:40:32;;;;;;;72.03;67.80;;;9.20;99.90;;;;;;4972658;28;20216;-74
2023/05/28 03:42:58;;;;;;;154.53;145.87;;;9.20;99.90;;;;;;4949650;28;20676;-73
2023/05/28 03:45:23;;;;;;;69.57;65.63;;;9.30;99.90;;;;;;4972609;28;20299;-73
2023/05/28 03:47:49;;;;;;;95.00;89.60;;;9.20;99.90;;;;;;4972391;28;20197;-73
2023/05/28 03:50:15;;;;;;;120.00;112.83;;;9.20;99.90;;;;;;4955357;28;20205;-73
2023/05/28 03:52:41;;;;;;;119.27;112.33;;;9.20;99.90;;;;;;4966147;28;20237;-73
2023/05/28 03:55:08;;;;;;;127.33;120.40;;;9.30;99.90;;;;;;4953379;28;20216;-75
2023/05/28 03:57:34;;;;;;;53.63;50.60;;;9.30;99.90;;;;;;4966821;28;20219;-73
2023/05/28 04:00:00;;;;;;;54.13;50.83;;;9.40;99.90;;;;;;4952857;28;20205;-73
2023/05/28 04:02:26;;;;;;;28.63;26.83;;;9.40;99.90;;;;;;4970002;28;20189;-73
2023/05/28 04:04:52;;;;;;;13.43;11.20;;;9.40;99.90;;;;;;4947748;28;20202;-73
2023/05/28 04:07:17;;;;;;;12.67;11.57;;;9.50;99.90;;;;;;4954424;28;20183;-73
2023/05/28 04:09:43;;;;;;;13.90;12.43;;;9.50;99.90;;;;;;4972046;28;20581;-73
2023/05/28 04:12:10;;;;;;;12.90;11.70;;;9.50;99.90;;;;;;4952683;28;20190;-73
2023/05/28 04:14:36;;;;;;;11.33;10.23;;;9.40;99.90;;;;;;4954570;28;20192;-73
2023/05/28 04:17:03;;;;;;;12.70;10.80;;;9.50;99.90;;;;;;4954726;28;20254;-73
2023/05/28 04:19:28;;;;;;;13.33;9.53;;;9.50;99.90;;;;;;4971890;28;20208;-73
2023/05/28 04:21:54;;;;;;;12.47;11.37;;;9.60;99.90;;;;;;4982624;28;20195;-73
2023/05/28 04:24:20;;;;;;;14.07;13.13;;;9.70;99.90;;;;;;4997304;28;20181;-73
2023/05/28 04:26:46;;;;;;;15.57;14.03;;;9.80;99.90;;;;;;4954692;28;20264;-73
2023/05/28 04:29:15;;;;;;;22.30;20.77;;;9.90;99.90;;;;;;4979403;28;20193;-73
2023/05/28 04:31:41;;;;;;;37.03;34.57;;;10.10;99.90;;;;;;4972902;28;20196;-66
2023/05/28 04:34:07;;;;;;;36.30;33.63;;;10.20;99.90;;;;;;4963395;28;20190;-66
2023/05/28 04:36:33;;;;;;;40.40;38.10;;;10.40;99.90;;;;;;4955036;28;20274;-67
2023/05/28 04:39:01;;;;;;;88.93;84.10;;;10.50;99.90;;;;;;4973065;28;20204;-67
2023/05/28 04:41:27;;;;;;;13.07;11.87;;;10.70;99.90;;;;;;4971355;28;20281;-67
2023/05/28 04:43:52;;;;;;;17.93;16.63;;;10.70;99.90;;;;;;4973446;28;20216;-69
2023/05/28 04:46:18;;;;;;;23.30;21.70;;;10.80;99.90;;;;;;4968208;28;20216;-68
2023/05/28 04:48:45;;;;;;;28.93;26.67;;;10.80;99.90;;;;;;4977218;28;20199;-68
2023/05/28 04:51:11;;;;;;;24.97;23.30;;;10.90;99.90;;;;;;4961344;28;21496;-68
2023/05/28 04:53:37;;;;;;;19.90;18.57;;;11.10;99.90;;;;;;4954256;28;20276;-68
2023/05/28 04:56:04;;;;;;;21.67;20.17;;;11.20;99.90;;;;;;4977494;28;20417;-68
2023/05/28 04:58:29;;;;;;;43.63;40.87;;;11.40;99.90;;;;;;4977299;28;20184;-68
2023/05/28 05:00:55;;;;;;;11.33;10.50;;;11.70;99.90;;;;;;4977805;28;20259;-68
2023/05/28 05:03:21;;;;;;;13.90;11.00;;;11.80;99.90;;;;;;4976424;28;20273;-68
2023/05/28 05:05:47;;;;;;;13.10;11.43;;;12.20;99.90;;;;;;4977812;28;20224;-68
2023/05/28 05:08:13;;;;;;;30.17;27.87;;;12.50;99.90;;;;;;4960196;28;20254;-68
2023/05/28 05:10:40;;;;;;;12.50;11.50;;;13.00;99.90;;;;;;4977436;28;20693;-69
2023/05/28 05:13:05;;;;;;;9.20;8.57;;;13.60;99.90;;;;;;4977985;28;20197;-68
2023/05/28 05:15:32;;;;;;;9.87;8.13;;;14.20;99.90;;;;;;4977197;28;20221;-68
2023/05/28 05:17:58;;;;;;;8.77;7.87;;;14.80;99.90;;;;;;4977172;28;20193;-68
2023/05/28 05:20:24;;;;;;;12.30;11.20;;;15.20;99.90;;;;;;4977697;28;20722;-68
2023/05/28 05:22:50;;;;;;;11.23;9.70;;;15.60;99.90;;;;;;4977106;28;20196;-68
2023/05/28 05:25:15;;;;;;;11.95;11.00;;;16.00;99.90;;;;;;4977210;28;20303;-68
2023/05/28 05:27:41;;;;;;;9.05;7.88;;;16.50;99.90;;;;;;4980540;28;20235;-68
2023/05/28 05:30:08;;;;;;;9.32;8.35;;;16.80;99.90;;;;;;4978565;28;20201;-69
2023/05/28 05:32:33;;;;;;;14.13;12.88;;;17.10;99.90;;;;;;4970261;28;20191;-65
2023/05/28 05:34:59;;;;;;;19.42;17.67;;;17.20;99.90;;;;;;4976828;28;20205;-68
2023/05/28 05:37:25;;;;;;;21.58;19.98;;;17.40;99.90;;;;;;4975935;28;20192;-67
2023/05/28 05:39:51;;;;;;;21.77;20.30;;;17.80;99.90;;;;;;4975389;28;20209;-67
2023/05/28 05:42:18;;;;;;;14.63;13.35;;;18.10;99.90;;;;;;4976035;28;20197;-66
2023/05/28 05:44:43;;;;;;;8.43;7.53;;;18.40;99.90;;;;;;4958918;28;20252;-66
2023/05/28 05:47:09;;;;;;;9.98;9.07;;;18.50;99.90;;;;;;4975458;28;20189;-66
2023/05/28 05:49:35;;;;;;;14.25;13.32;;;18.60;99.90;;;;;;4976262;28;20284;-68
2023/05/28 05:52:01;;;;;;;13.80;12.85;;;18.80;99.90;;;;;;4974872;28;20365;-66
2023/05/28 05:54:27;;;;;;;10.50;9.48;;;19.20;99.90;;;;;;4968198;28;20673;-66
2023/05/28 05:56:52;;;;;;;7.25;6.57;;;19.50;99.90;;;;;;4972145;28;20607;-66
2023/05/28 05:59:18;;;;;;;7.25;6.40;;;19.80;99.90;;;;;;4973104;28;20681;-66
2023/05/28 06:01:44;;;;;;;8.30;6.53;;;19.90;99.90;;;;;;4973350;28;20185;-65
2023/05/28 06:04:10;;;;;;;7.43;6.72;;;20.20;99.90;;;;;;4972856;28;20188;-63
2023/05/28 06:06:37;;;;;;;16.40;14.88;;;20.50;99.10;;;;;;4973899;28;20205;-66
2023/05/28 06:09:03;;;;;;;22.48;20.88;;;20.60;98.30;;;;;;4971771;28;20206;-63
2023/05/28 06:11:28;;;;;;;20.63;19.23;;;20.90;97.20;;;;;;4973481;28;20573;-63
2023/05/28 06:13:55;;;;;;;25.98;24.40;;;21.10;96.90;;;;;;4966903;28;20201;-63
2023/05/28 06:16:21;;;;;;;17.55;16.35;;;21.30;96.20;;;;;;4987902;28;20217;-65
2023/05/28 06:18:47;;;;;;;11.75;10.15;;;21.40;95.10;;;;;;4974621;28;20208;-63
2023/05/28 06:21:13;;;;;;;8.63;7.70;;;21.50;94.70;;;;;;4974534;28;20188;-64
2023/05/28 06:23:39;;;;;;;9.85;6.65;;;21.80;93.50;;;;;;4966877;28;20684;-63
2023/05/28 06:26:05;;;;;;;14.82;10.52;;;22.00;93.30;;;;;;4974500;28;20213;-64
2023/05/28 06:28:31;;;;;;;22.05;20.20;;;22.20;91.80;;;;;;4960723;28;20653;-66
2023/05/28 06:30:57;;;;;;;27.30;25.55;;;22.20;91.50;;;;;;4973812;28;20188;-67
2023/05/28 06:33:23;;;;;;;28.38;26.55;;;22.60;91.40;;;;;;4966288;28;20612;-67
2023/05/28 06:35:48;;;;;;;34.78;32.67;;;22.70;91.30;;;;;;4972773;28;20205;-68
2023/05/28 06:38:14;;;;;;;39.97;37.67;;;22.70;90.20;;;;;;4955546;28;20669;-67
2023/05/28 06:40:40;;;;;;;30.45;28.45;;;23.00;89.60;;;;;;4973252;28;20696;-66
2023/05/28 06:43:06;;;;;;;23.30;21.80;;;23.10;86.90;;;;;;4966081;28;20190;-68
2023/05/28 06:45:32;;;;;;;26.10;24.38;;;22.90;86.80;;;;;;4973330;28;20300;-68
2023/05/28 06:47:59;;;;;;;31.15;29.02;;;22.90;86.20;;;;;;4955164;28;20185;-67
2023/05/28 06:50:25;;;;;;;34.58;32.00;;;22.80;85.30;;;;;;4973377;28;20185;-67
2023/05/28 06:52:51;;;;;;;27.30;25.20;;;23.00;86.00;;;;;;4966466;28;20196;-68
2023/05/28 06:55:17;;;;;;;28.52;26.67;;;23.30;85.50;;;;;;4958200;28;20204;-67
2023/05/28 06:57:44;;;;;;;25.23;23.45;;;23.40;85.20;;;;;;4956407;28;20197;-68
2023/05/28 07:00:16;;;;;;;22.08;20.08;;;23.50;84.90;;;;;;4973449;28;20209;-67
2023/05/28 07:02:45;;;;;;;19.05;17.42;;;23.80;82.90;;;;;;4950519;28;20244;-66
2023/05/28 07:05:12;;;;;;;17.25;15.75;;;23.90;83.70;;;;;;4974513;28;20208;-67
2023/05/28 07:07:38;;;;;;;12.55;8.38;;;24.20;83.00;;;;;;4976700;28;20285;-67
2023/05/28 07:10:04;;;;;;;11.50;10.23;;;24.30;80.90;;;;;;4971767;28;20293;-67
2023/05/28 07:12:30;;;;;;;8.63;7.82;;;24.20;80.60;;;;;;4971413;28;20643;-67
2023/05/28 07:14:56;;;;;;;9.85;7.45;;;24.40;80.50;;;;;;4971325;28;20224;-67
2023/05/28 07:17:22;;;;;;;9.95;7.05;;;24.40;80.90;;;;;;4972581;28;20779;-67
2023/05/28 07:19:48;;;;;;;8.00;6.32;;;24.70;80.90;;;;;;4973029;28;20209;-67
2023/05/28 07:22:14;;;;;;;11.10;9.00;;;25.20;75.20;;;;;;4971990;28;20252;-67
2023/05/28 07:24:40;;;;;;;10.18;8.75;;;25.40;75.30;;;;;;4968317;28;20192;-67
2023/05/28 07:27:06;;;;;;;8.80;7.95;;;25.70;73.60;;;;;;4972836;28;20227;-67
2023/05/28 07:29:31;;;;;;;9.07;8.18;;;25.50;71.90;;;;;;4955820;28;20193;-67
2023/05/28 07:31:57;;;;;;;9.45;6.05;;;25.10;73.20;;;;;;4970092;28;20615;-67
2023/05/28 07:34:23;;;;;;;8.57;7.40;;;24.90;71.80;;;;;;4973043;28;20188;-67
2023/05/28 07:36:49;;;;;;;11.07;8.50;;;24.50;73.90;;;;;;4972837;28;20760;-67
2023/05/28 07:39:14;;;;;;;10.48;9.05;;;24.70;73.00;;;;;;4972403;28;20688;-66
2023/05/28 07:41:40;;;;;;;9.30;7.22;;;25.10;72.80;;;;;;4971752;28;20302;-67
2023/05/28 07:44:06;;;;;;;7.57;6.47;;;25.60;71.50;;;;;;4971348;28;20199;-67
2023/05/28 07:46:32;;;;;;;10.70;6.55;;;25.70;71.00;;;;;;4972917;28;20215;-67
2023/05/28 07:48:58;;;;;;;6.88;5.82;;;25.60;70.70;;;;;;4972464;28;20196;-67
2023/05/28 07:51:26;;;;;;;6.80;6.07;;;25.50;72.50;;;;;;4972847;28;20572;-67
2023/05/28 07:53:52;;;;;;;9.57;8.52;;;25.90;70.70;;;;;;4952824;28;20185;-67
2023/05/28 07:56:18;;;;;;;10.68;9.57;;;26.30;69.60;;;;;;4972117;28;20688;-67
2023/05/28 07:58:45;;;;;;;10.68;9.57;;;26.40;68.60;;;;;;4965390;28;20181;-67
2023/05/28 08:01:11;;;;;;;8.98;8.10;;;26.00;68.10;;;;;;4954605;28;20231;-67
2023/05/28 08:03:36;;;;;;;8.32;6.22;;;25.40;68.60;;;;;;4952488;28;20192;-66
2023/05/28 08:06:03;;;;;;;9.20;6.55;;;24.80;70.40;;;;;;4955844;28;20208;-67
2023/05/28 08:08:29;;;;;;;11.48;6.53;;;25.00;70.40;;;;;;4979673;28;20189;-66
2023/05/28 08:10:55;;;;;;;8.73;6.25;;;24.60;71.20;;;;;;4991128;28;20195;-67
2023/05/28 08:13:21;;;;;;;9.75;6.55;;;24.60;70.90;;;;;;4974980;28;20185;-66
2023/05/28 08:15:47;;;;;;;10.77;6.95;;;24.90;69.90;;;;;;4972611;28;20255;-66
2023/05/28 08:18:13;;;;;;;7.75;5.68;;;25.20;69.80;;;;;;4971170;28;20874;-67
2023/05/28 08:20:39;;;;;;;7.93;6.15;;;25.20;67.80;;;;;;4953068;28;20875;-69
2023/05/28 08:23:05;;;;;;;10.77;6.28;;;25.50;69.60;;;;;;4978260;28;20195;-69
2023/05/28 08:25:33;;;;;;;6.72;6.13;;;25.20;68.00;;;;;;4955105;28;20213;-69
2023/05/28 08:27:58;;;;;;;8.70;6.10;;;25.20;69.70;;;;;;4971883;28;20189;-69
2023/05/28 08:30:24;;;;;;;7.63;5.13;;;25.70;68.60;;;;;;4972099;28;20204;-69
2023/05/28 08:32:50;;;;;;;7.30;5.55;;;25.60;67.80;;;;;;4970474;28;20188;-69
2023/05/28 08:35:16;;;;;;;8.88;6.50;;;25.70;68.50;;;;;;4971827;28;20275;-68
2023/05/28 08:37:42;;;;;;;8.90;6.93;;;25.90;66.00;;;;;;4971932;28;20244;-68
2023/05/28 08:40:08;;;;;;;12.35;11.20;;;26.30;67.20;;;;;;4972129;28;20216;-68
2023/05/28 08:42:38;;;;;;;9.52;8.45;;;26.90;65.10;;;;;;4970516;28;20177;-68
2023/05/28 08:45:04;;;;;;;10.93;9.88;;;27.00;65.30;;;;;;4972012;28;20211;-67
2023/05/28 08:47:33;;;;;;;12.13;9.48;;;27.60;65.00;;;;;;4965821;28;20180;-67
2023/05/28 08:50:06;;;;;;;12.77;8.02;;;27.90;63.00;;;;;;4971722;28;20224;-67
2023/05/28 08:52:33;;;;;;;12.35;9.38;;;28.10;63.40;;;;;;4970963;28;20280;-67
2023/05/28 08:55:00;;;;;;;12.23;10.98;;;28.40;63.80;;;;;;4971495;28;20736;-68
2023/05/28 08:57:28;;;;;;;10.55;9.30;;;28.30;61.20;;;;;;4965392;28;20815;-67
2023/05/28 08:59:55;;;;;;;12.15;10.82;;;28.10;61.50;;;;;;4964024;28;20213;-67
2023/05/28 09:02:24;;;;;;;11.30;9.77;;;28.00;60.30;;;;;;4970754;28;20212;-67
2023/05/28 09:04:50;;;;;;;10.57;8.25;;;27.30;61.00;;;;;;4971374;28;20851;-67
2023/05/28 09:07:16;;;;;;;9.00;7.47;;;27.50;62.20;;;;;;4971032;28;20195;-67
2023/05/28 09:09:43;;;;;;;11.55;10.68;;;28.10;61.00;;;;;;4952964;28;20272;-67
2023/05/28 09:12:12;;;;;;;14.85;13.60;;;28.50;59.20;;;;;;4970518;28;20223;-68
2023/05/28 09:14:40;;;;;;;14.43;13.25;;;28.60;58.90;;;;;;4970903;28;20683;-68
2023/05/28 09:17:10;;;;;;;13.05;11.68;;;28.60;57.60;;;;;;4991250;23;20236;-69
2023/05/28 09:19:36;;;;;;;11.23;9.10;;;28.50;58.10;;;;;;4971453;28;20668;-72
2023/05/28 09:22:03;;;;;;;10.88;9.98;;;28.20;59.10;;;;;;4970943;28;20180;-71
2023/05/28 09:24:33;;;;;;;13.38;11.95;;;28.10;58.70;;;;;;4971588;28;20276;-68
2023/05/28 09:27:01;;;;;;;9.60;8.75;;;28.10;57.00;;;;;;4957808;28;20244;-69
2023/05/28 09:29:27;;;;;;;10.23;9.00;;;27.70;57.60;;;;;;4952661;28;20546;-68
2023/05/28 09:31:58;;;;;;;8.98;7.93;;;27.70;58.10;;;;;;4955185;28;20200;-68
2023/05/28 09:34:31;;;;;;;10.45;9.45;;;27.90;57.50;;;;;;4955882;28;20704;-69
2023/05/28 09:37:04;;;;;;;9.75;8.57;;;28.10;56.80;;;;;;4955465;28;20220;-68
2023/05/28 09:39:31;;;;;;;8.80;7.65;;;27.60;57.20;;;;;;4955754;28;20225;-68
2023/05/28 09:42:03;;;;;;;11.18;9.27;;;27.40;57.30;;;;;;4955449;28;20217;-69
2023/05/28 09:44:37;;;;;;;10.73;9.75;;;27.10;55.70;;;;;;4955765;28;20631;-69
2023/05/28 09:47:14;;;;;;;9.13;8.43;;;26.90;56.80;;;;;;4955392;28;20209;-69
2023/05/28 09:49:43;;;;;;;11.25;9.68;;;26.70;55.60;;;;;;4938567;29;20276;-68
2023/05/28 09:52:10;;;;;;;10.77;9.52;;;26.60;55.50;;;;;;4955287;28;20190;-68
2023/05/28 09:54:38;;;;;;;9.90;9.02;;;26.50;57.30;;;;;;4955564;28;20700;-68
2023/05/28 09:57:09;;;;;;;13.50;9.02;;;26.70;57.20;;;;;;4955331;28;20554;-69
2023/05/28 09:59:38;;;;;;;8.02;7.25;;;27.00;56.70;;;;;;4955433;28;20224;-67
2023/05/28 10:02:10;;;;;;;11.18;9.50;;;27.50;55.60;;;;;;4955069;28;20182;-69
2023/05/28 10:04:38;;;;;;;15.55;14.15;;;28.10;53.60;;;;;;4955577;28;20194;-67
2023/05/28 10:07:05;;;;;;;23.58;21.83;;;28.50;53.60;;;;;;4955198;28;20251;-68
2023/05/28 10:09:33;;;;;;;39.13;36.78;;;28.80;53.60;;;;;;4955312;28;20654;-67
2023/05/28 10:12:12;;;;;;;40.67;38.08;;;29.10;53.40;;;;;;4954981;28;20204;-68
2023/05/28 10:14:39;;;;;;;56.60;53.45;;;29.30;54.30;;;;;;4955361;28;20683;-68
2023/05/28 10:17:08;;;;;;;40.63;37.70;;;29.10;51.90;;;;;;4954042;28;20229;-68
2023/05/28 10:19:36;;;;;;;47.33;44.53;;;28.30;53.20;;;;;;4954140;28;20589;-68
2023/05/28 10:22:02;;;;;;;33.92;31.98;;;28.30;52.00;;;;;;4953842;28;20680;-67
2023/05/28 10:24:28;;;;;;;36.63;34.22;;;27.70;52.60;;;;;;4954112;28;20600;-68
2023/05/28 10:26:54;;;;;;;39.58;37.20;;;27.90;51.60;;;;;;4953662;28;20229;-69
2023/05/28 10:29:20;;;;;;;59.40;56.00;;;28.60;51.20;;;;;;4936927;29;20197;-68
2023/05/28 10:32:02;;;;;;;56.70;53.28;;;29.10;50.70;;;;;;4954083;28;20277;-68
2023/05/28 10:34:34;;;;;;;56.40;53.22;;;29.20;48.20;;;;;;4947543;28;20241;-68
2023/05/28 10:37:03;;;;;;;58.97;55.47;;;28.60;48.60;;;;;;4953399;28;20269;-69
2023/05/28 10:39:43;;;;;;;56.20;53.00;;;29.00;49.20;;;;;;4953508;28;20717;-68
2023/05/28 10:42:13;;;;;;;55.95;52.83;;;28.80;49.00;;;;;;4952858;28;20190;-68
2023/05/28 10:45:00;;;;;;;52.75;49.88;;;29.00;48.90;;;;;;4953624;28;20232;-68
2023/05/28 10:47:32;;;;;;;65.53;61.90;;;29.80;48.20;;;;;;4953266;28;20205;-68
2023/05/28 10:50:08;;;;;;;33.13;31.38;;;29.90;45.40;;;;;;4953458;28;20197;-67
2023/05/28 10:52:34;;;;;;;43.05;40.60;;;29.60;44.70;;;;;;4953383;28;20280;-68
2023/05/28 10:55:09;;;;;;;51.63;48.78;;;30.00;45.90;;;;;;4953151;28;20190;-68
2023/05/28 10:57:48;;;;;;;54.38;51.28;;;30.70;46.50;;;;;;4952895;28;20212;-68
2023/05/28 11:00:24;;;;;;;47.42;44.22;;;31.10;47.50;;;;;;4953178;28;20232;-69
2023/05/28 11:02:54;;;;;;;47.83;45.20;;;31.70;47.80;;;;;;4953236;28;20189;-68
2023/05/28 11:05:27;;;;;;;37.08;34.85;;;31.50;47.10;;;;;;4944867;28;20193;-69
2023/05/28 11:07:55;;;;;;;26.65;24.70;;;31.70;45.20;;;;;;4952992;28;20658;-67
2023/05/28 11:10:21;;;;;;;25.48;23.88;;;31.90;45.00;;;;;;4953361;28;20194;-71
2023/05/28 11:12:49;;;;;;;31.08;29.05;;;31.80;44.10;;;;;;4953376;28;20560;-68
2023/05/28 11:15:15;;;;;;;23.77;21.98;;;31.60;44.70;;;;;;4953121;28;20197;-68
2023/05/28 11:17:42;;;;;;;26.45;24.60;;;32.00;42.50;;;;;;4915923;28;1109107;-67
2023/05/28 11:20:18;;;;;;;30.00;28.00;;;31.90;44.30;;;;;;4953951;28;20264;-67
2023/05/28 11:22:43;;;;;;;31.25;29.50;;;32.00;42.30;;;;;;4953723;28;20216;-68
2023/05/28 11:25:10;;;;;;;30.75;28.42;;;31.60;42.50;;;;;;4953822;28;20209;-68
2023/05/28 11:27:37;;;;;;;28.70;26.98;;;31.30;42.10;;;;;;4953431;28;20350;-67
2023/05/28 11:30:11;;;;;;;23.85;22.40;;;31.70;43.90;;;;;;4953801;28;20227;-68
2023/05/28 11:32:38;;;;;;;15.20;13.98;;;32.20;41.60;;;;;;4953435;28;20207;-69
2023/05/28 11:35:04;;;;;;;13.35;12.38;;;32.80;40.20;;;;;;4953508;28;20185;-68
2023/05/28 11:37:32;;;;;;;6.80;6.15;;;33.00;41.50;;;;;;4953317;28;20217;-68
2023/05/28 11:39:59;;;;;;;5.65;4.90;;;33.60;40.60;;;;;;4953369;28;20221;-68
2023/05/28 11:42:28;;;;;;;7.40;4.95;;;33.60;39.30;;;;;;4953407;28;20197;-69
2023/05/28 11:44:54;;;;;;;7.82;4.88;;;33.40;38.90;;;;;;4953479;28;20189;-67
2023/05/28 11:47:21;;;;;;;6.80;6.10;;;33.60;40.10;;;;;;4953320;28;20213;-67
2023/05/28 11:49:48;;;;;;;9.73;8.48;;;33.40;36.50;;;;;;4961622;28;20182;-67
2023/05/28 11:52:18;;;;;;;7.07;6.38;;;32.40;37.50;;;;;;4936124;28;20273;-67
2023/05/28 11:54:46;;;;;;;7.00;6.32;;;32.50;38.80;;;;;;4948953;28;20201;-67
2023/05/28 11:57:24;;;;;;;6.30;4.80;;;33.40;39.60;;;;;;4953101;28;20241;-67
2023/05/28 12:00:11;;;;;;;6.72;4.50;;;33.40;37.00;;;;;;4953451;28;20217;-68
2023/05/28 12:02:52;;;;;;;6.13;4.85;;;32.50;37.20;;;;;;4936005;29;20199;-67
2023/05/28 12:05:19;;;;;;;5.70;5.15;;;31.90;37.70;;;;;;4945444;28;20197;-67
2023/05/28 12:07:46;;;;;;;5.10;4.60;;;31.70;37.60;;;;;;4935811;29;20676;-67
2023/05/28 12:10:19;;;;;;;6.45;4.53;;;31.40;36.60;;;;;;4953183;28;20678;-66
2023/05/28 12:12:49;;;;;;;5.60;5.05;;;31.70;37.10;;;;;;4952899;28;20186;-68
2023/05/28 12:15:16;;;;;;;4.72;4.22;;;32.00;38.20;;;;;;4935728;28;20189;-67
2023/05/28 12:17:44;;;;;;;8.75;4.53;;;32.60;36.60;;;;;;4935471;29;20255;-68
2023/05/28 12:20:12;;;;;;;6.50;5.10;;;32.70;37.20;;;;;;4952912;28;20221;-67
2023/05/28 12:22:41;;;;;;;7.97;5.03;;;32.60;36.20;;;;;;4952990;28;20260;-68
2023/05/28 12:25:08;;;;;;;5.97;5.35;;;32.70;37.40;;;;;;4953114;28;20609;-67
2023/05/28 12:27:34;;;;;;;6.90;6.35;;;33.30;35.50;;;;;;4952772;28;20267;-68
2023/05/28 12:30:00;;;;;;;9.45;6.07;;;33.20;33.90;;;;;;4952977;28;20202;-68
2023/05/28 12:32:26;;;;;;;6.55;5.85;;;33.20;36.00;;;;;;4952992;28;20549;-68
2023/05/28 12:34:56;;;;;;;10.73;9.90;;;34.00;34.50;;;;;;4935961;28;20197;-68
2023/05/28 12:37:22;;;;;;;21.80;20.33;;;34.70;33.90;;;;;;4952731;28;20216;-68
2023/05/28 12:39:48;;;;;;;30.25;28.33;;;34.90;34.20;;;;;;4935794;29;20217;-67
2023/05/28 12:42:14;;;;;;;24.92;23.27;;;35.20;32.80;;;;;;4952950;28;20657;-69
2023/05/28 12:44:40;;;;;;;43.50;40.42;;;34.30;33.50;;;;;;4952668;28;20315;-66
2023/05/28 12:47:06;;;;;;;36.38;34.08;;;34.30;32.70;;;;;;4952400;28;20724;-66
2023/05/28 12:49:32;;;;;;;35.17;33.05;;;34.10;33.70;;;;;;4952922;28;20220;-66
2023/05/28 12:51:58;;;;;;;49.30;46.70;;;34.50;33.40;;;;;;4952670;28;20194;-66
2023/05/28 12:54:24;;;;;;;51.03;48.25;;;34.40;33.40;;;;;;4952332;28;20244;-65
2023/05/28 12:56:49;;;;;;;29.02;27.20;;;34.30;33.30;;;;;;4952409;28;20212;-68
2023/05/28 12:59:23;;;;;;;11.90;10.90;;;34.30;34.50;;;;;;4952370;28;20232;-69
2023/05/28 13:01:49;;;;;;;8.50;7.40;;;33.50;34.20;;;;;;4952530;28;20196;-68
2023/05/28 13:04:15;;;;;;;7.57;6.88;;;33.00;35.20;;;;;;4953063;28;20185;-68
2023/05/28 13:06:42;;;;;;;11.32;10.45;;;33.20;35.00;;;;;;4956344;28;20213;-69
2023/05/28 13:09:09;;;;;;;20.60;19.23;;;34.50;34.30;;;;;;4955995;28;20338;-69
2023/05/28 13:11:36;;;;;;;33.90;31.98;;;35.00;34.10;;;;;;4939243;29;20243;-69
2023/05/28 13:14:02;;;;;;;37.35;35.22;;;35.90;32.90;;;;;;4956119;28;20275;-68
2023/05/28 13:16:27;;;;;;;35.03;32.72;;;36.00;34.50;;;;;;4956034;28;20707;-69
2023/05/28 13:18:55;;;;;;;29.35;27.40;;;35.50;35.00;;;;;;4955536;28;20189;-68
2023/05/28 13:21:21;;;;;;;25.58;23.98;;;34.70;35.60;;;;;;4955939;28;20190;-69
2023/05/28 13:23:48;;;;;;;33.13;31.00;;;34.70;35.20;;;;;;4955821;28;20185;-68
2023/05/28 13:26:14;;;;;;;20.92;19.52;;;35.00;35.60;;;;;;4955912;28;20222;-68
2023/05/28 13:28:40;;;;;;;12.75;8.75;;;34.80;35.80;;;;;;4955536;28;20189;-68
2023/05/28 13:31:05;;;;;;;10.55;7.75;;;33.90;37.60;;;;;;4955798;28;20197;-68
2023/05/28 13:33:31;;;;;;;6.88;5.55;;;34.20;37.90;;;;;;4955596;28;20654;-68
2023/05/28 13:35:57;;;;;;;7.18;6.50;;;33.60;37.80;;;;;;4955338;28;20221;-68
2023/05/28 13:38:23;;;;;;;5.95;5.03;;;33.40;38.20;;;;;;4955387;28;20189;-67
2023/05/28 13:40:49;;;;;;;8.10;6.03;;;33.10;38.60;;;;;;4955663;28;20224;-68
2023/05/28 13:43:15;;;;;;;8.65;5.97;;;32.90;39.10;;;;;;4955537;28;20182;-68
2023/05/28 13:45:41;;;;;;;7.82;6.03;;;33.20;39.00;;;;;;4955499;28;20245;-68
2023/05/28 13:48:07;;;;;;;6.45;5.43;;;33.70;38.50;;;;;;4955170;28;20190;-68
2023/05/28 13:50:33;;;;;;;7.82;7.18;;;34.60;37.50;;;;;;4955458;28;20248;-68
2023/05/28 13:52:59;;;;;;;8.02;7.20;;;35.30;36.40;;;;;;4955294;28;20200;-69
2023/05/28 13:55:25;;;;;;;12.63;8.23;;;35.30;35.90;;;;;;4955429;28;20198;-69
2023/05/28 13:57:54;;;;;;;10.52;9.52;;;34.30;36.60;;;;;;4937953;29;20189;-69
2023/05/28 14:00:20;;;;;;;8.60;7.90;;;34.20;37.20;;;;;;4955401;28;20768;-68
2023/05/28 14:02:48;;;;;;;8.85;8.00;;;34.70;36.80;;;;;;4955216;28;20764;-67
2023/05/28 14:05:14;;;;;;;9.95;9.00;;;34.60;37.00;;;;;;4954805;28;20193;-68
2023/05/28 14:07:40;;;;;;;9.23;8.43;;;34.50;37.50;;;;;;4954781;28;20301;-68
2023/05/28 14:10:06;;;;;;;15.77;14.50;;;34.80;39.00;;;;;;4955172;28;20296;-67
2023/05/28 14:12:32;;;;;;;17.33;15.75;;;35.80;36.60;;;;;;4955206;28;20280;-68
2023/05/28 14:14:58;;;;;;;10.93;10.15;;;35.80;36.00;;;;;;4954538;28;20278;-68
2023/05/28 14:17:23;;;;;;;12.27;11.23;;;35.40;36.60;;;;;;4953765;28;20601;-68
2023/05/28 14:19:49;;;;;;;18.45;17.25;;;35.40;36.60;;;;;;4954868;28;20214;-69
2023/05/28 14:22:15;;;;;;;31.70;29.70;;;35.70;37.10;;;;;;4954997;28;20186;-68
2023/05/28 14:24:41;;;;;;;42.13;39.70;;;36.10;36.40;;;;;;4954965;28;20198;-68
2023/05/28 14:27:06;;;;;;;30.83;29.05;;;35.60;36.30;;;;;;4954707;28;20210;-67
2023/05/28 14:29:32;;;;;;;53.25;50.17;;;35.50;36.60;;;;;;4938171;29;20679;-67
2023/05/28 14:31:58;;;;;;;58.28;55.17;;;36.20;36.00;;;;;;4954963;28;20272;-66
2023/05/28 14:34:23;;;;;;;58.33;54.95;;;36.30;35.00;;;;;;4954684;28;20217;-67
2023/05/28 14:36:49;;;;;;;43.42;40.80;;;35.80;35.50;;;;;;4954779;28;20613;-68
2023/05/28 14:39:15;;;;;;;17.50;15.93;;;35.50;35.40;;;;;;4954400;28;20232;-68
2023/05/28 14:41:41;;;;;;;8.75;7.97;;;34.50;36.90;;;;;;4954820;28;20240;-69
2023/05/28 14:44:06;;;;;;;8.70;7.82;;;33.90;37.80;;;;;;4954403;28;20638;-69
2023/05/28 14:46:32;;;;;;;8.10;7.30;;;34.00;38.00;;;;;;4954883;28;20206;-69
2023/05/28 14:48:58;;;;;;;14.82;9.18;;;34.80;37.40;;;;;;4954160;28;20194;-68
2023/05/28 14:51:24;;;;;;;10.00;8.95;;;34.40;37.20;;;;;;4954626;28;20190;-68
2023/05/28 14:53:49;;;;;;;10.25;9.55;;;34.20;37.30;;;;;;4953212;28;20272;-68
2023/05/28 14:56:15;;;;;;;11.25;10.32;;;34.40;37.70;;;;;;4949892;28;20209;-69
2023/05/28 14:58:41;;;;;;;9.07;8.23;;;34.60;36.30;;;;;;4953841;29;20265;-69
2023/05/28 15:01:07;;;;;;;16.00;10.25;;;34.60;36.80;;;;;;4956416;28;20209;-68
2023/05/28 15:03:32;;;;;;;9.60;8.50;;;34.60;36.50;;;;;;4960338;28;20186;-67
2023/05/28 15:05:59;;;;;;;9.57;7.82;;;34.50;35.50;;;;;;4954355;28;20217;-68
2023/05/28 15:08:25;;;;;;;9.02;6.22;;;34.60;36.60;;;;;;4954008;28;20202;-68
2023/05/28 15:10:51;;;;;;;7.72;6.13;;;33.70;36.50;;;;;;4954334;28;20293;-68
2023/05/28 15:13:18;;;;;;;7.82;6.20;;;33.50;36.90;;;;;;4936807;29;20197;-68
2023/05/28 15:15:43;;;;;;;8.68;6.45;;;33.50;37.30;;;;;;4936956;29;20229;-67
2023/05/28 15:18:09;;;;;;;7.72;6.93;;;33.80;37.20;;;;;;4956099;28;20264;-68
2023/05/28 15:20:35;;;;;;;8.07;6.63;;;34.20;36.30;;;;;;4959484;28;20225;-68
2023/05/28 15:23:01;;;;;;;7.38;6.25;;;34.10;36.90;;;;;;4953658;28;20333;-67
2023/05/28 15:25:28;;;;;;;9.60;7.10;;;34.50;37.00;;;;;;4953942;28;20222;-67
2023/05/28 15:27:54;;;;;;;6.30;5.60;;;34.20;35.70;;;;;;4935931;28;20276;-68
2023/05/28 15:30:20;;;;;;;6.32;5.70;;;33.40;36.10;;;;;;4953817;28;20775;-67
2023/05/28 15:32:48;;;;;;;9.43;5.90;;;32.50;36.80;;;;;;4953815;28;20213;-67
2023/05/28 15:35:14;;;;;;;8.13;5.82;;;32.20;37.60;;;;;;4953372;28;20186;-67